Time;durP1;ratioP1;P1;durP2;ratioP2;P2;SDS_P1;SDS_P2;PMS_P1;PMS_P2;Temp;Humidity;BMP_temperature;BMP_pressure;BME280_temperature;BME280_humidity;BME280_pressure;Samples;Min_cycle;Max_cycle;Signal;HPM_P1;HPM_P2
2021/05/23 00:02:24;;;;;;;3.13;0.77;;;8.50;99.90;;;;;;5052922;28;20559;-68
2021/05/23 00:04:51;;;;;;;1.10;0.80;;;8.50;99.90;;;;;;5052553;28;20911;-68
2021/05/23 00:07:20;;;;;;;0.90;0.70;;;8.40;99.90;;;;;;5052871;28;20540;-68
2021/05/23 00:09:47;;;;;;;3.70;1.13;;;8.20;99.90;;;;;;5052996;28;20941;-68
2021/05/23 00:12:16;;;;;;;0.90;0.70;;;8.10;99.90;;;;;;5053373;28;20431;-70
2021/05/23 00:14:42;;;;;;;0.90;0.70;;;7.90;99.90;;;;;;5052582;28;20438;-68
2021/05/23 00:17:10;;;;;;;3.70;0.80;;;7.80;99.90;;;;;;5052826;28;20447;-68
2021/05/23 00:19:38;;;;;;;1.27;1.03;;;7.70;99.90;;;;;;5052926;28;20796;-68
2021/05/23 00:22:06;;;;;;;1.00;0.77;;;7.60;99.90;;;;;;5052571;28;20437;-68
2021/05/23 00:24:32;;;;;;;1.57;0.80;;;7.60;99.90;;;;;;5052788;28;20433;-68
2021/05/23 00:26:59;;;;;;;1.87;0.73;;;7.50;99.90;;;;;;5052315;28;20472;-68
2021/05/23 00:29:26;;;;;;;2.23;0.90;;;7.50;99.90;;;;;;5052355;28;20478;-68
2021/05/23 00:31:53;;;;;;;1.93;0.83;;;7.40;99.90;;;;;;5052657;28;20476;-68
2021/05/23 00:34:21;;;;;;;0.90;0.70;;;7.40;99.90;;;;;;5052207;28;20520;-68
2021/05/23 00:36:48;;;;;;;7.63;0.80;;;7.30;99.90;;;;;;5052415;28;20826;-68
2021/05/23 00:39:14;;;;;;;2.30;0.80;;;7.20;99.90;;;;;;5052457;28;20502;-69
2021/05/23 00:41:41;;;;;;;2.07;0.80;;;7.20;99.90;;;;;;5052127;28;20530;-68
2021/05/23 00:44:08;;;;;;;1.00;0.90;;;7.20;99.90;;;;;;5051970;28;20432;-68
2021/05/23 00:46:35;;;;;;;0.90;0.70;;;7.10;99.90;;;;;;5052227;28;20833;-68
2021/05/23 00:49:01;;;;;;;2.90;0.90;;;7.10;99.90;;;;;;5052030;28;20426;-69
2021/05/23 00:51:29;;;;;;;0.80;0.70;;;7.10;99.90;;;;;;5052341;28;21101;-68
2021/05/23 00:53:56;;;;;;;1.17;0.80;;;7.10;99.90;;;;;;5051816;28;20728;-68
2021/05/23 00:56:22;;;;;;;1.20;0.90;;;7.10;99.90;;;;;;5051852;28;20444;-68
2021/05/23 00:58:49;;;;;;;1.00;0.80;;;7.00;99.90;;;;;;5051263;28;20875;-68
2021/05/23 01:02:01;;;;;;;1.53;1.00;;;7.10;99.90;;;;;;5051755;28;20448;-68
2021/05/23 01:04:28;;;;;;;1.60;1.17;;;7.00;99.90;;;;;;5051443;28;20432;-68
2021/05/23 01:06:55;;;;;;;1.10;1.00;;;7.00;99.90;;;;;;5051537;28;20444;-68
2021/05/23 01:09:23;;;;;;;0.90;0.70;;;7.00;99.90;;;;;;5051564;28;20424;-68
2021/05/23 01:12:25;;;;;;;1.40;0.80;;;7.00;99.90;;;;;;5051651;28;20471;-68
2021/05/23 01:14:59;;;;;;;1.00;0.77;;;6.90;99.90;;;;;;5051326;28;20434;-68
2021/05/23 01:17:39;;;;;;;0.93;0.77;;;6.80;99.90;;;;;;5051477;28;20540;-68
2021/05/23 01:20:25;;;;;;;1.67;0.83;;;6.80;99.90;;;;;;5051453;28;20422;-68
2021/05/23 01:23:06;;;;;;;1.50;0.90;;;6.80;99.90;;;;;;5051673;28;20440;-68
2021/05/23 01:25:39;;;;;;;0.90;0.70;;;6.80;99.90;;;;;;5051269;28;20777;-68
2021/05/23 01:28:07;;;;;;;1.20;0.80;;;6.80;99.90;;;;;;5051527;28;20436;-68
2021/05/23 01:30:42;;;;;;;2.03;0.77;;;6.80;99.90;;;;;;5051132;28;20483;-68
2021/05/23 01:33:09;;;;;;;1.07;0.80;;;6.80;99.90;;;;;;5050979;28;20447;-69
2021/05/23 01:35:37;;;;;;;0.80;0.60;;;6.80;99.90;;;;;;5051213;28;20457;-68
2021/05/23 01:38:10;;;;;;;1.23;1.03;;;6.80;99.90;;;;;;5050668;28;20952;-68
2021/05/23 01:40:39;;;;;;;0.90;0.70;;;6.80;99.90;;;;;;5051165;28;20441;-68
2021/05/23 01:43:07;;;;;;;1.73;0.70;;;6.80;99.90;;;;;;5051217;28;20538;-69
2021/05/23 01:45:34;;;;;;;0.90;0.70;;;6.80;99.90;;;;;;5051366;28;20858;-68
2021/05/23 01:48:03;;;;;;;1.10;0.70;;;6.80;99.90;;;;;;5050916;28;20812;-68
2021/05/23 01:50:30;;;;;;;0.90;0.70;;;6.80;99.90;;;;;;5050651;28;20562;-68
2021/05/23 01:52:58;;;;;;;0.80;0.60;;;6.80;99.90;;;;;;5050827;28;20534;-68
2021/05/23 01:55:26;;;;;;;2.90;0.80;;;6.80;99.90;;;;;;5050804;28;20521;-68
2021/05/23 01:57:54;;;;;;;0.80;0.70;;;6.80;99.90;;;;;;5051084;28;20433;-68
2021/05/23 02:00:25;;;;;;;0.90;0.70;;;6.90;99.90;;;;;;5050840;28;20449;-68
2021/05/23 02:02:52;;;;;;;1.13;0.83;;;6.90;99.90;;;;;;5051011;28;20941;-68
2021/05/23 02:05:19;;;;;;;1.83;0.90;;;6.90;99.90;;;;;;5049795;28;20454;-68
2021/05/23 02:07:46;;;;;;;1.00;0.70;;;6.90;99.90;;;;;;5050730;28;20445;-69
2021/05/23 02:10:16;;;;;;;0.90;0.70;;;6.90;99.90;;;;;;5050430;28;20526;-69
2021/05/23 02:12:44;;;;;;;0.87;0.80;;;6.90;99.90;;;;;;5050623;28;20455;-68
2021/05/23 02:15:15;;;;;;;1.00;0.90;;;6.90;99.90;;;;;;5050869;28;20441;-68
2021/05/23 02:17:42;;;;;;;2.20;1.00;;;6.90;99.90;;;;;;5050616;28;20434;-68
2021/05/23 02:20:11;;;;;;;1.00;0.90;;;6.90;99.90;;;;;;5050469;28;20926;-69
2021/05/23 02:22:39;;;;;;;0.90;0.80;;;6.90;99.90;;;;;;5050422;28;20503;-68
2021/05/23 02:25:07;;;;;;;1.47;0.80;;;6.90;99.90;;;;;;5050580;28;20486;-68
2021/05/23 02:27:38;;;;;;;1.00;0.77;;;6.80;99.90;;;;;;5050728;28;20444;-68
2021/05/23 02:30:10;;;;;;;1.00;0.73;;;6.80;99.90;;;;;;5050514;28;20434;-68
2021/05/23 02:32:38;;;;;;;1.10;0.90;;;6.80;99.90;;;;;;5050826;28;20440;-68
2021/05/23 02:35:06;;;;;;;1.00;0.83;;;6.70;99.90;;;;;;5050684;28;20515;-68
2021/05/23 02:37:33;;;;;;;1.57;1.07;;;6.70;99.90;;;;;;5050623;28;20459;-68
2021/05/23 02:40:02;;;;;;;1.03;0.93;;;6.70;99.90;;;;;;5050549;28;20515;-68
2021/05/23 02:42:29;;;;;;;1.20;0.87;;;6.80;99.90;;;;;;5050344;28;20440;-68
2021/05/23 02:44:56;;;;;;;1.07;0.97;;;6.70;99.90;;;;;;5050600;28;20507;-68
2021/05/23 02:47:22;;;;;;;1.17;1.00;;;6.70;99.90;;;;;;5050399;28;20461;-68
2021/05/23 02:49:50;;;;;;;2.00;1.07;;;6.70;99.90;;;;;;5050460;28;20443;-68
2021/05/23 02:52:25;;;;;;;2.03;0.97;;;6.60;99.90;;;;;;5054462;28;20477;-70
2021/05/23 02:54:52;;;;;;;1.57;0.80;;;6.60;99.90;;;;;;5054902;28;20428;-69
2021/05/23 02:57:19;;;;;;;1.10;0.83;;;6.60;99.90;;;;;;5054149;28;20524;-71
2021/05/23 02:59:46;;;;;;;1.00;0.90;;;6.60;99.90;;;;;;5054211;28;20930;-70
2021/05/23 03:02:12;;;;;;;1.10;1.00;;;6.60;99.90;;;;;;5054117;28;20429;-70
2021/05/23 03:04:39;;;;;;;1.10;1.00;;;6.60;99.90;;;;;;5053913;28;20428;-70
2021/05/23 03:07:07;;;;;;;1.20;1.10;;;6.60;99.90;;;;;;5053982;28;20470;-70
2021/05/23 03:09:34;;;;;;;1.37;0.83;;;6.60;99.90;;;;;;5053778;28;20933;-69
2021/05/23 03:12:00;;;;;;;1.40;1.30;;;6.60;99.90;;;;;;5053248;28;20475;-70
2021/05/23 03:14:27;;;;;;;1.33;1.23;;;6.50;99.90;;;;;;5053972;28;21164;-70
2021/05/23 03:16:54;;;;;;;1.10;0.90;;;6.60;99.90;;;;;;5054095;28;20547;-70
2021/05/23 03:19:21;;;;;;;1.10;0.97;;;6.60;99.90;;;;;;5053621;28;20803;-69
2021/05/23 03:21:48;;;;;;;1.03;0.93;;;6.60;99.90;;;;;;5053481;28;20451;-70
2021/05/23 03:24:15;;;;;;;1.00;0.90;;;6.60;99.90;;;;;;5053272;28;20439;-69
2021/05/23 03:26:42;;;;;;;1.00;0.90;;;6.60;99.90;;;;;;5053788;28;20463;-70
2021/05/23 03:29:09;;;;;;;1.13;1.03;;;6.50;99.90;;;;;;5053382;28;20435;-70
2021/05/23 03:31:35;;;;;;;2.27;1.10;;;6.50;99.90;;;;;;5053550;28;20476;-69
2021/05/23 03:34:02;;;;;;;1.33;1.20;;;6.50;99.90;;;;;;5053215;28;20446;-70
2021/05/23 03:36:29;;;;;;;1.10;1.00;;;6.50;99.90;;;;;;5053543;28;20453;-69
2021/05/23 03:38:56;;;;;;;1.10;1.00;;;6.50;99.90;;;;;;5053405;28;21163;-69
2021/05/23 03:41:23;;;;;;;1.90;1.03;;;6.50;99.90;;;;;;5053535;28;20516;-70
2021/05/23 03:43:50;;;;;;;1.27;1.17;;;6.50;99.90;;;;;;5053250;28;20433;-70
2021/05/23 03:46:17;;;;;;;1.20;0.97;;;6.50;99.90;;;;;;5053297;28;20948;-69
2021/05/23 03:48:43;;;;;;;1.17;0.90;;;6.50;99.90;;;;;;5053028;28;20525;-69
2021/05/23 03:51:10;;;;;;;1.20;1.10;;;6.50;99.90;;;;;;5053245;28;20478;-71
2021/05/23 03:53:37;;;;;;;1.00;0.83;;;6.50;99.90;;;;;;5053509;28;20464;-74
2021/05/23 03:56:04;;;;;;;1.30;1.20;;;6.50;99.90;;;;;;5053440;28;20444;-70
2021/05/23 03:58:31;;;;;;;0.90;0.80;;;6.40;99.90;;;;;;5053077;28;20433;-71
2021/05/23 04:00:58;;;;;;;6.40;1.20;;;6.40;99.90;;;;;;5052738;28;20711;-69
2021/05/23 04:03:27;;;;;;;1.10;1.00;;;6.40;99.90;;;;;;5053445;28;20480;-71
2021/05/23 04:05:54;;;;;;;1.37;1.17;;;6.40;99.90;;;;;;5053162;28;20505;-70
2021/05/23 04:08:21;;;;;;;1.37;1.20;;;6.40;99.90;;;;;;5053107;28;20427;-69
2021/05/23 04:10:53;;;;;;;1.10;1.00;;;6.40;99.90;;;;;;5052809;28;20463;-69
2021/05/23 04:13:22;;;;;;;1.73;1.63;;;6.30;99.90;;;;;;5052812;28;20484;-68
2021/05/23 04:15:49;;;;;;;3.40;1.40;;;6.40;99.90;;;;;;5052903;28;21230;-69
2021/05/23 04:18:16;;;;;;;1.47;1.10;;;6.30;99.90;;;;;;5052862;28;20422;-70
2021/05/23 04:20:43;;;;;;;1.67;1.10;;;6.30;99.90;;;;;;5052333;28;20530;-70
2021/05/23 04:23:10;;;;;;;1.10;0.70;;;6.30;99.90;;;;;;5052695;28;20450;-69
2021/05/23 04:25:36;;;;;;;1.00;0.90;;;6.30;99.90;;;;;;5052507;28;20447;-70
2021/05/23 04:28:04;;;;;;;3.90;1.10;;;6.30;99.90;;;;;;5052649;28;20475;-69
2021/05/23 04:30:31;;;;;;;2.70;1.10;;;6.30;99.90;;;;;;5052902;28;20427;-69
2021/05/23 04:32:59;;;;;;;1.10;1.00;;;6.30;99.90;;;;;;5052259;28;20765;-70
2021/05/23 04:35:26;;;;;;;1.03;0.87;;;6.30;99.90;;;;;;5052392;28;20757;-69
2021/05/23 04:37:54;;;;;;;1.53;1.00;;;6.30;99.90;;;;;;5052521;28;20442;-70
2021/05/23 04:40:21;;;;;;;0.80;0.73;;;6.30;99.90;;;;;;5052847;28;20461;-69
2021/05/23 04:42:48;;;;;;;0.90;0.80;;;6.20;99.90;;;;;;5052268;28;20422;-70
2021/05/23 04:45:15;;;;;;;1.60;1.20;;;6.20;99.90;;;;;;5051893;28;20589;-70
2021/05/23 04:47:42;;;;;;;1.40;1.17;;;6.30;99.90;;;;;;5052533;28;20434;-70
2021/05/23 04:50:11;;;;;;;0.90;0.77;;;6.30;99.90;;;;;;5052421;28;20434;-69
2021/05/23 04:52:38;;;;;;;1.13;0.90;;;6.30;99.90;;;;;;5052131;28;20479;-70
2021/05/23 04:55:07;;;;;;;1.00;0.90;;;6.20;99.90;;;;;;5052303;28;20934;-70
2021/05/23 04:57:34;;;;;;;0.93;0.80;;;6.20;99.90;;;;;;5052011;28;20455;-71
2021/05/23 05:00:00;;;;;;;1.13;1.03;;;6.20;99.90;;;;;;5051862;28;20473;-69
2021/05/23 05:02:27;;;;;;;2.20;1.07;;;6.20;99.90;;;;;;5052043;28;20478;-69
2021/05/23 05:04:54;;;;;;;1.50;1.03;;;6.20;99.90;;;;;;5051671;28;21019;-70
2021/05/23 05:07:21;;;;;;;1.40;1.10;;;6.20;99.90;;;;;;5051867;28;20445;-69
2021/05/23 05:09:48;;;;;;;8.30;0.90;;;6.30;99.90;;;;;;5051727;28;20424;-70
2021/05/23 05:12:15;;;;;;;1.30;1.20;;;6.20;99.90;;;;;;5050522;28;20482;-70
2021/05/23 05:14:42;;;;;;;3.93;1.20;;;6.20;99.90;;;;;;5050760;28;20499;-69
2021/05/23 05:17:08;;;;;;;0.80;0.70;;;6.30;99.90;;;;;;5051536;28;20958;-69
2021/05/23 05:19:35;;;;;;;1.00;0.90;;;6.20;99.90;;;;;;5051316;28;20427;-69
2021/05/23 05:22:02;;;;;;;4.87;1.10;;;6.30;99.90;;;;;;5051482;28;20989;-69
2021/05/23 05:24:31;;;;;;;5.90;1.03;;;6.20;99.90;;;;;;5051493;28;20413;-70
2021/05/23 05:26:57;;;;;;;1.10;0.87;;;6.30;99.90;;;;;;5051343;28;20443;-69
2021/05/23 05:29:24;;;;;;;1.43;1.00;;;6.40;99.90;;;;;;5051478;28;20428;-69
2021/05/23 05:31:51;;;;;;;2.23;0.90;;;6.30;99.90;;;;;;5051528;28;21083;-70
2021/05/23 05:34:18;;;;;;;1.63;0.90;;;6.40;99.90;;;;;;5050947;28;20469;-69
2021/05/23 05:36:45;;;;;;;1.33;1.23;;;6.30;99.90;;;;;;5051513;28;20470;-69
2021/05/23 05:39:12;;;;;;;1.73;1.00;;;6.30;99.90;;;;;;5051317;28;20473;-70
2021/05/23 05:41:40;;;;;;;1.00;0.90;;;6.30;99.90;;;;;;5050967;28;20447;-70
2021/05/23 05:44:07;;;;;;;1.30;0.83;;;6.30;99.90;;;;;;5050757;28;20441;-68
2021/05/23 05:46:33;;;;;;;2.17;0.90;;;6.30;99.90;;;;;;5051106;28;20886;-68
2021/05/23 05:49:00;;;;;;;1.03;0.90;;;6.30;99.90;;;;;;5050872;28;20427;-68
2021/05/23 05:51:27;;;;;;;2.27;1.03;;;6.30;99.90;;;;;;5051324;28;20473;-69
2021/05/23 05:53:54;;;;;;;4.87;1.00;;;6.30;99.90;;;;;;5050931;28;20795;-68
2021/05/23 05:56:21;;;;;;;1.80;1.00;;;6.40;99.90;;;;;;5050757;28;20845;-67
2021/05/23 05:58:48;;;;;;;1.10;1.00;;;6.40;99.90;;;;;;5050898;28;20429;-68
2021/05/23 06:01:15;;;;;;;1.27;1.17;;;6.40;99.90;;;;;;5050895;28;20437;-68
2021/05/23 06:03:42;;;;;;;1.70;1.20;;;6.60;99.90;;;;;;5050556;28;20437;-68
2021/05/23 06:06:09;;;;;;;1.43;0.80;;;6.60;99.90;;;;;;5050789;28;21047;-69
2021/05/23 06:08:36;;;;;;;1.03;0.87;;;6.70;99.90;;;;;;5051106;28;20447;-68
2021/05/23 06:11:03;;;;;;;2.53;1.10;;;6.60;99.90;;;;;;5050985;28;20474;-68
2021/05/23 06:13:29;;;;;;;1.80;0.87;;;6.60;99.90;;;;;;5049440;28;20468;-68
2021/05/23 06:15:58;;;;;;;1.57;0.90;;;6.50;99.90;;;;;;5050680;28;21154;-68
2021/05/23 06:18:25;;;;;;;3.00;1.10;;;6.60;99.90;;;;;;5050848;28;20431;-68
2021/05/23 06:20:52;;;;;;;3.97;1.60;;;6.60;99.90;;;;;;5050806;28;20435;-68
2021/05/23 06:23:19;;;;;;;6.50;0.90;;;6.70;99.90;;;;;;5050161;28;20563;-68
2021/05/23 06:25:46;;;;;;;2.80;1.27;;;6.70;99.90;;;;;;5056362;28;21009;-68
2021/05/23 06:28:13;;;;;;;1.10;1.00;;;6.70;99.90;;;;;;5056725;28;20439;-68
2021/05/23 06:30:40;;;;;;;1.27;0.90;;;6.60;99.90;;;;;;5057383;28;20974;-68
2021/05/23 06:33:08;;;;;;;7.00;1.20;;;6.60;99.90;;;;;;5056891;28;20508;-67
2021/05/23 06:35:34;;;;;;;2.37;1.23;;;6.60;99.90;;;;;;5057283;28;20467;-68
2021/05/23 06:38:01;;;;;;;2.40;1.27;;;6.60;99.90;;;;;;5057026;28;20440;-68
2021/05/23 06:40:28;;;;;;;4.50;1.20;;;6.70;99.90;;;;;;5057131;28;20537;-68
2021/05/23 06:42:55;;;;;;;4.00;1.30;;;6.70;99.90;;;;;;5057657;28;20561;-68
2021/05/23 06:45:22;;;;;;;2.70;1.03;;;6.70;99.90;;;;;;5056835;28;20435;-68
2021/05/23 06:47:48;;;;;;;1.57;1.23;;;6.70;99.90;;;;;;5057401;28;20453;-68
2021/05/23 06:50:16;;;;;;;2.07;1.00;;;6.60;99.90;;;;;;5056857;28;20431;-68
2021/05/23 06:52:43;;;;;;;4.40;1.47;;;6.70;99.90;;;;;;5056759;28;20511;-68
2021/05/23 06:55:11;;;;;;;1.00;0.90;;;6.70;99.90;;;;;;5057103;28;20428;-68
2021/05/23 06:57:39;;;;;;;3.03;1.10;;;6.80;99.90;;;;;;5057285;28;20431;-68
2021/05/23 07:00:08;;;;;;;3.20;1.00;;;6.80;99.90;;;;;;5050168;28;20436;-68
2021/05/23 07:02:35;;;;;;;1.63;1.00;;;6.70;99.90;;;;;;5068581;28;20989;-68
2021/05/23 07:05:02;;;;;;;4.20;1.10;;;6.80;99.90;;;;;;5072250;28;20461;-68
2021/05/23 07:07:31;;;;;;;1.97;0.80;;;6.80;99.90;;;;;;5050635;28;20479;-68
2021/05/23 07:09:58;;;;;;;1.60;1.23;;;6.80;99.90;;;;;;5056588;28;20431;-67
2021/05/23 07:12:25;;;;;;;1.87;0.93;;;6.90;99.90;;;;;;5056548;28;20986;-68
2021/05/23 07:14:52;;;;;;;2.57;0.97;;;7.00;99.90;;;;;;5056172;28;20437;-68
2021/05/23 07:17:18;;;;;;;2.90;1.10;;;6.90;99.90;;;;;;5056725;28;20535;-68
2021/05/23 07:20:20;;;;;;;0.97;0.77;;;6.90;99.90;;;;;;5056518;28;20537;-68
2021/05/23 07:22:47;;;;;;;2.00;1.10;;;7.00;99.90;;;;;;5057262;28;20794;-68
2021/05/23 07:25:15;;;;;;;1.63;1.00;;;7.10;99.90;;;;;;5056414;28;20921;-68
2021/05/23 07:27:42;;;;;;;1.47;1.37;;;7.10;99.90;;;;;;5055618;28;20437;-68
2021/05/23 07:30:10;;;;;;;2.03;1.00;;;7.30;99.90;;;;;;5056130;28;20516;-69
2021/05/23 07:32:37;;;;;;;6.00;1.30;;;7.60;99.90;;;;;;5055977;28;20481;-68
2021/05/23 07:35:07;;;;;;;2.10;1.87;;;7.90;99.90;;;;;;5055987;28;20506;-68
2021/05/23 07:37:37;;;;;;;2.20;1.93;;;8.10;99.90;;;;;;5051844;28;20816;-68
2021/05/23 07:40:06;;;;;;;2.37;1.20;;;8.20;99.90;;;;;;5052778;28;20433;-68
2021/05/23 07:42:33;;;;;;;2.33;1.30;;;8.10;99.90;;;;;;5052435;28;20434;-68
2021/05/23 07:44:59;;;;;;;4.00;1.57;;;7.90;99.90;;;;;;5053027;28;20907;-68
2021/05/23 07:47:26;;;;;;;1.70;1.13;;;8.00;99.90;;;;;;5053126;28;20827;-68
2021/05/23 07:49:55;;;;;;;1.30;1.07;;;7.90;99.90;;;;;;5052864;28;20459;-68
2021/05/23 07:52:21;;;;;;;3.60;0.97;;;7.80;99.90;;;;;;5052968;28;20800;-68
2021/05/23 07:54:51;;;;;;;3.23;1.07;;;7.90;99.90;;;;;;5064381;28;20847;-69
2021/05/23 07:57:19;;;;;;;1.30;1.00;;;8.00;99.90;;;;;;5072818;28;20819;-68
2021/05/23 07:59:45;;;;;;;1.30;0.90;;;7.90;99.90;;;;;;5073230;28;20526;-68
2021/05/23 08:02:12;;;;;;;1.30;1.10;;;7.80;99.90;;;;;;5073147;28;20435;-68
2021/05/23 08:04:39;;;;;;;1.97;1.63;;;7.80;99.90;;;;;;5072663;28;20430;-68
2021/05/23 08:07:06;;;;;;;0.97;0.87;;;7.80;99.90;;;;;;5070217;28;20523;-68
2021/05/23 08:09:32;;;;;;;1.53;1.13;;;7.80;99.90;;;;;;5049733;28;20440;-68
2021/05/23 08:11:59;;;;;;;2.50;1.03;;;7.80;99.90;;;;;;5052643;28;20482;-68
2021/05/23 08:14:27;;;;;;;1.57;0.90;;;8.10;99.90;;;;;;5052576;28;20534;-69
2021/05/23 08:16:54;;;;;;;1.10;0.90;;;8.30;99.90;;;;;;5052429;28;20450;-68
2021/05/23 08:19:21;;;;;;;1.40;1.10;;;8.50;99.90;;;;;;5052306;28;20435;-68
2021/05/23 08:21:48;;;;;;;1.60;1.00;;;8.60;99.90;;;;;;5051326;28;20485;-71
2021/05/23 08:24:15;;;;;;;1.57;0.97;;;8.80;99.90;;;;;;5050314;28;20450;-71
2021/05/23 08:26:42;;;;;;;1.60;1.10;;;9.10;99.90;;;;;;5052254;28;20500;-70
2021/05/23 08:29:09;;;;;;;1.53;1.40;;;9.30;99.90;;;;;;5051974;28;20441;-70
2021/05/23 08:31:37;;;;;;;5.47;1.23;;;9.30;99.90;;;;;;5051979;28;20568;-70
2021/05/23 08:34:04;;;;;;;1.87;1.03;;;9.10;99.90;;;;;;5051975;28;20433;-70
2021/05/23 08:36:31;;;;;;;2.97;1.20;;;8.90;99.90;;;;;;5051882;28;20457;-70
2021/05/23 08:38:57;;;;;;;1.10;0.90;;;9.00;99.90;;;;;;5051994;28;20430;-70
2021/05/23 08:41:27;;;;;;;1.63;1.20;;;9.20;99.90;;;;;;5052552;28;20437;-70
2021/05/23 08:43:54;;;;;;;1.80;1.17;;;9.60;99.90;;;;;;5052282;28;20469;-70
2021/05/23 08:46:21;;;;;;;1.07;0.80;;;9.40;99.90;;;;;;5051989;28;20466;-70
2021/05/23 08:48:50;;;;;;;3.27;1.10;;;9.60;99.90;;;;;;5051015;28;20429;-70
2021/05/23 08:51:17;;;;;;;1.60;0.90;;;9.60;99.90;;;;;;5050737;28;20476;-69
2021/05/23 08:53:47;;;;;;;1.10;0.70;;;9.80;99.90;;;;;;5051575;28;20438;-70
2021/05/23 08:56:14;;;;;;;1.70;0.83;;;9.80;99.90;;;;;;5071876;28;20516;-70
2021/05/23 08:58:43;;;;;;;4.60;1.60;;;9.60;99.90;;;;;;5072294;28;20451;-70
2021/05/23 09:01:10;;;;;;;3.30;1.63;;;9.60;99.90;;;;;;5071661;28;20516;-70
2021/05/23 09:03:37;;;;;;;1.70;1.00;;;9.50;99.90;;;;;;5071701;28;20421;-70
2021/05/23 09:06:06;;;;;;;2.10;1.37;;;9.70;99.90;;;;;;5051067;28;21076;-70
2021/05/23 09:08:33;;;;;;;1.30;0.90;;;9.90;99.90;;;;;;5051937;28;20453;-69
2021/05/23 09:11:04;;;;;;;3.20;1.00;;;10.00;99.90;;;;;;5051151;28;20433;-69
2021/05/23 09:13:32;;;;;;;1.30;1.07;;;9.90;99.90;;;;;;5050847;28;20443;-70
2021/05/23 09:16:01;;;;;;;1.37;1.20;;;9.90;99.90;;;;;;5051352;28;20450;-69
2021/05/23 09:18:39;;;;;;;1.10;0.90;;;9.80;99.90;;;;;;5049961;28;20506;-69
2021/05/23 09:21:07;;;;;;;3.30;0.80;;;10.00;99.90;;;;;;5049071;28;20442;-70
2021/05/23 09:23:44;;;;;;;3.77;1.10;;;10.20;99.90;;;;;;5051296;28;20522;-69
2021/05/23 09:26:21;;;;;;;1.83;0.90;;;10.50;99.90;;;;;;5051089;28;20483;-69
2021/05/23 09:28:49;;;;;;;0.90;0.80;;;10.60;99.90;;;;;;5051049;28;20787;-69
2021/05/23 09:31:22;;;;;;;2.67;0.80;;;10.50;99.90;;;;;;5052218;28;20467;-69
2021/05/23 09:33:52;;;;;;;4.30;0.90;;;10.50;99.90;;;;;;5051165;28;20939;-70
2021/05/23 09:36:23;;;;;;;1.00;0.60;;;10.60;99.90;;;;;;5050877;28;20446;-71
2021/05/23 09:39:09;;;;;;;1.20;0.80;;;10.80;99.90;;;;;;5050963;28;20439;-69
2021/05/23 09:41:38;;;;;;;2.77;1.10;;;10.90;99.90;;;;;;5050622;28;20433;-70
2021/05/23 09:44:38;;;;;;;1.47;1.10;;;10.80;99.90;;;;;;5050707;28;20833;-71
2021/05/23 09:47:09;;;;;;;3.63;0.70;;;10.90;99.90;;;;;;5050425;28;21874;-70
2021/05/23 09:49:41;;;;;;;1.00;0.80;;;11.00;99.90;;;;;;5048315;28;20434;-70
2021/05/23 09:52:11;;;;;;;1.57;1.13;;;10.90;99.90;;;;;;5050547;28;20528;-69
2021/05/23 09:54:46;;;;;;;1.47;0.83;;;10.90;99.90;;;;;;5052963;28;20415;-70
2021/05/23 09:57:14;;;;;;;0.80;0.60;;;10.90;99.90;;;;;;5047866;28;20465;-71
2021/05/23 09:59:41;;;;;;;1.10;0.87;;;11.00;99.90;;;;;;5049215;28;20524;-70
2021/05/23 10:02:09;;;;;;;1.10;0.87;;;11.30;99.90;;;;;;5049883;28;20854;-67
2021/05/23 10:04:36;;;;;;;1.20;0.70;;;11.30;99.90;;;;;;5049770;28;20439;-70
2021/05/23 10:07:08;;;;;;;1.77;1.37;;;10.90;99.90;;;;;;5050081;28;20974;-69
2021/05/23 10:09:36;;;;;;;2.00;0.77;;;11.20;99.90;;;;;;5048038;28;20831;-69
2021/05/23 10:12:06;;;;;;;2.00;0.70;;;11.20;99.90;;;;;;5050146;28;20463;-69
2021/05/23 10:14:34;;;;;;;4.43;0.90;;;11.00;99.90;;;;;;5050187;28;20439;-69
2021/05/23 10:17:01;;;;;;;3.60;0.83;;;10.70;99.90;;;;;;5049140;28;20898;-68
2021/05/23 10:19:31;;;;;;;1.50;0.90;;;10.40;99.90;;;;;;5049736;28;20858;-70
2021/05/23 10:22:01;;;;;;;2.60;0.93;;;10.40;99.90;;;;;;5050143;28;20431;-70
2021/05/23 10:24:32;;;;;;;1.00;0.70;;;10.60;99.90;;;;;;5049870;28;20423;-69
2021/05/23 10:27:04;;;;;;;1.40;0.90;;;11.00;99.90;;;;;;5050140;28;20513;-68
2021/05/23 10:29:36;;;;;;;1.57;1.03;;;11.20;99.90;;;;;;5050025;28;20904;-69
2021/05/23 10:32:06;;;;;;;0.90;0.70;;;11.50;99.90;;;;;;5047658;28;20524;-69
2021/05/23 10:34:38;;;;;;;6.70;1.10;;;11.50;99.90;;;;;;5049394;28;20529;-70
2021/05/23 10:37:05;;;;;;;2.60;1.03;;;11.50;99.90;;;;;;5050235;28;20471;-68
2021/05/23 10:39:51;;;;;;;2.17;1.20;;;11.10;99.90;;;;;;5050208;28;20425;-69
2021/05/23 10:42:20;;;;;;;1.43;0.80;;;11.00;99.90;;;;;;5050852;28;20492;-69
2021/05/23 10:44:49;;;;;;;3.60;1.20;;;10.80;99.90;;;;;;5050250;28;20423;-69
2021/05/23 10:47:18;;;;;;;2.20;0.97;;;11.10;99.90;;;;;;5050436;28;20469;-69
2021/05/23 10:49:52;;;;;;;6.03;1.27;;;11.40;99.90;;;;;;5050087;28;20464;-68
2021/05/23 10:52:19;;;;;;;4.13;1.00;;;11.70;99.90;;;;;;5050397;28;20531;-69
2021/05/23 10:55:01;;;;;;;1.20;0.70;;;11.80;99.90;;;;;;5050314;28;20457;-69
2021/05/23 10:57:43;;;;;;;1.13;0.90;;;11.40;99.90;;;;;;5049294;28;20443;-71
2021/05/23 11:00:15;;;;;;;5.43;2.50;;;11.20;99.90;;;;;;5047164;28;21196;-70
2021/05/23 11:02:44;;;;;;;2.40;1.00;;;11.20;99.90;;;;;;5030399;28;20434;-72
2021/05/23 11:05:13;;;;;;;2.03;1.07;;;11.20;99.90;;;;;;5030266;28;20432;-71
2021/05/23 11:07:40;;;;;;;3.47;0.80;;;11.10;99.90;;;;;;5039872;28;20546;-70
2021/05/23 11:10:18;;;;;;;5.67;0.90;;;11.20;99.90;;;;;;5050323;28;20447;-70
2021/05/23 11:12:54;;;;;;;3.53;0.70;;;10.90;99.90;;;;;;5052971;28;20557;-71
2021/05/23 11:15:21;;;;;;;1.10;0.87;;;10.80;99.90;;;;;;5053720;28;20484;-71
2021/05/23 11:17:53;;;;;;;1.87;0.80;;;10.90;99.90;;;;;;5054103;28;20858;-71
2021/05/23 11:20:24;;;;;;;7.13;0.90;;;11.10;99.90;;;;;;5053860;28;20469;-71
2021/05/23 11:26:25;;;;;;;1.93;1.00;;;11.20;99.90;;;;;;5053153;28;20457;-71
2021/05/23 11:28:55;;;;;;;1.70;0.87;;;11.40;99.90;;;;;;5052814;28;20604;-71
2021/05/23 11:31:22;;;;;;;1.93;0.90;;;12.10;99.90;;;;;;5046808;28;20478;-71
2021/05/23 11:33:53;;;;;;;2.40;0.80;;;12.40;99.90;;;;;;5052892;28;20508;-71
2021/05/23 11:36:20;;;;;;;1.83;0.80;;;12.30;99.90;;;;;;5049705;28;20463;-72
2021/05/23 11:38:50;;;;;;;2.17;0.80;;;12.50;99.90;;;;;;5053238;28;20431;-70
2021/05/23 11:41:27;;;;;;;5.17;1.27;;;12.60;99.90;;;;;;5053511;28;20789;-71
2021/05/23 11:43:56;;;;;;;3.13;1.00;;;12.50;99.90;;;;;;5053241;28;20435;-69
2021/05/23 11:46:24;;;;;;;1.30;1.10;;;12.90;99.90;;;;;;5052522;28;20482;-71
2021/05/23 11:48:54;;;;;;;2.80;0.80;;;13.30;99.90;;;;;;5052930;28;20510;-70
2021/05/23 11:51:24;;;;;;;2.00;0.83;;;13.40;99.90;;;;;;5053409;28;20466;-70
2021/05/23 11:53:53;;;;;;;1.33;0.80;;;13.30;99.90;;;;;;5052771;28;20928;-69
2021/05/23 11:56:22;;;;;;;1.40;0.80;;;13.10;99.90;;;;;;5053381;28;20463;-71
2021/05/23 11:58:50;;;;;;;1.40;0.87;;;13.30;99.90;;;;;;5053268;28;20860;-72
2021/05/23 12:01:24;;;;;;;1.93;0.90;;;13.60;99.90;;;;;;5052923;28;20427;-71
2021/05/23 12:04:05;;;;;;;2.23;1.40;;;13.80;99.90;;;;;;5052636;28;20462;-71
2021/05/23 12:06:34;;;;;;;1.00;0.70;;;14.40;99.90;;;;;;5052784;28;20457;-74
2021/05/23 12:09:08;;;;;;;1.70;0.90;;;14.30;99.90;;;;;;5051947;28;20427;-72
2021/05/23 12:11:43;;;;;;;2.37;0.90;;;14.10;99.90;;;;;;5050864;28;20561;-70
2021/05/23 12:14:25;;;;;;;3.40;0.70;;;14.10;99.90;;;;;;5049532;28;21129;-70
2021/05/23 12:17:01;;;;;;;1.40;0.90;;;14.30;99.90;;;;;;5033289;28;20452;-70
2021/05/23 12:19:46;;;;;;;1.83;0.67;;;14.30;99.90;;;;;;5033337;28;20455;-70
2021/05/23 12:22:13;;;;;;;1.20;0.80;;;14.50;99.90;;;;;;5032635;28;20514;-69
2021/05/23 12:24:41;;;;;;;0.90;0.70;;;14.70;99.90;;;;;;5047344;28;20458;-70
2021/05/23 12:27:07;;;;;;;2.10;1.00;;;14.50;99.90;;;;;;5052627;28;20443;-71
2021/05/23 12:29:34;;;;;;;1.20;0.80;;;14.70;99.90;;;;;;5052479;28;20536;-70
2021/05/23 12:32:05;;;;;;;1.30;0.70;;;14.80;99.90;;;;;;5052458;28;20904;-72
2021/05/23 12:34:32;;;;;;;2.10;0.80;;;14.70;99.90;;;;;;5052407;28;20437;-71
2021/05/23 12:37:02;;;;;;;1.13;0.70;;;14.70;99.90;;;;;;5053708;28;20501;-70
2021/05/23 12:39:32;;;;;;;1.00;0.60;;;14.80;99.90;;;;;;5052138;28;20443;-72
2021/05/23 12:42:03;;;;;;;5.70;1.13;;;14.40;99.90;;;;;;5052581;28;20994;-71
2021/05/23 12:44:32;;;;;;;1.87;0.80;;;14.70;99.90;;;;;;5052362;28;20430;-71
2021/05/23 12:47:10;;;;;;;1.67;0.77;;;15.00;99.90;;;;;;5052332;28;21151;-71
2021/05/23 12:49:45;;;;;;;7.33;0.80;;;15.30;99.90;;;;;;5052717;28;20522;-70
2021/05/23 12:52:15;;;;;;;1.97;0.67;;;15.30;99.90;;;;;;5052221;28;20470;-69
2021/05/23 12:54:42;;;;;;;1.33;0.70;;;15.10;99.90;;;;;;5051887;28;20442;-70
2021/05/23 12:57:09;;;;;;;2.93;0.90;;;14.80;99.90;;;;;;5052089;28;20463;-71
2021/05/23 12:59:39;;;;;;;1.30;0.70;;;15.20;99.90;;;;;;5051924;28;20475;-70
2021/05/23 13:02:07;;;;;;;1.97;0.70;;;15.80;99.90;;;;;;5051980;28;20523;-70
2021/05/23 13:04:35;;;;;;;1.40;0.90;;;16.00;99.90;;;;;;5051844;28;20425;-70
2021/05/23 13:07:03;;;;;;;0.90;0.60;;;15.90;99.90;;;;;;5052147;28;20449;-71